Downstream station:
SHEF ID: MGMO2 Salt Fork Red River at Mangum, O
STATION TYPE:
Regulating: Stage = 9.00, Flow = 3416
STAGE RIV-FLOW BAT-LOAD
ft cfs volt
Ccp-Rev Ccp-Rev Ccp-Rev
(US/Central)
12/03 00:00 2.98 129 12.57
12/03 01:00 2.97 127 12.57
12/03 02:00 2.97 127 12.57
12/03 03:00 2.97 127 12.49
12/03 04:00 2.97 127 12.49
12/03 05:00 2.98 129 12.49
12/03 06:00 2.98 129 12.41
12/03 07:00 2.99 131 12.41
12/03 08:00 2.99 131 12.41
12/03 09:00 2.99 131 12.41
12/03 10:00 2.99 131 12.97
12/03 11:00 3.01 134 13.60
12/03 12:00 3.00 133 13.44
12/03 13:00 3.01 134 13.44
12/03 14:00 3.00 133 13.21
12/03 15:00 2.99 131 13.13
12/03 16:00 2.99 131 13.13
12/03 17:00 2.99 131 13.13
12/03 18:00 2.98 129 12.81
12/03 19:00 2.98 129 12.73
12/03 20:00 2.98 129 12.73
12/03 21:00 2.98 129 12.65
12/03 22:00 2.99 131 12.65
12/03 23:00 2.98 129 12.65